createdAt,value
2023-04-23T00:01:06.846Z,16.72
2023-04-23T00:03:34.385Z,16.70
2023-04-23T00:06:05.695Z,16.61
2023-04-23T00:08:32.943Z,16.69
2023-04-23T00:10:59.733Z,16.75
2023-04-23T00:13:26.486Z,16.74
2023-04-23T00:15:53.400Z,16.71
2023-04-23T00:18:20.653Z,16.63
2023-04-23T00:20:47.070Z,16.73
2023-04-23T00:23:13.500Z,16.69
2023-04-23T00:25:39.997Z,16.71
2023-04-23T00:28:06.441Z,16.64
2023-04-23T00:30:33.620Z,16.60
2023-04-23T00:33:00.123Z,16.66
2023-04-23T00:35:26.856Z,16.66
2023-04-23T00:37:53.304Z,16.72
2023-04-23T00:40:21.140Z,16.72
2023-04-23T00:42:49.183Z,16.67
2023-04-23T00:45:16.119Z,16.61
2023-04-23T00:47:43.363Z,16.69
2023-04-23T00:50:09.861Z,16.68
2023-04-23T00:52:39.073Z,16.66
2023-04-23T00:55:05.952Z,16.67
2023-04-23T00:57:33.308Z,16.52
2023-04-23T01:00:00.461Z,16.56
2023-04-23T01:02:28.540Z,16.47
2023-04-23T01:04:55.916Z,16.39
2023-04-23T01:07:22.830Z,16.33
2023-04-23T01:09:50.515Z,16.34
2023-04-23T01:12:16.960Z,16.17
2023-04-23T01:14:43.942Z,16.22
2023-04-23T01:17:12.172Z,16.33
2023-04-23T01:19:39.350Z,16.24
2023-04-23T01:22:14.255Z,16.17
2023-04-23T01:24:42.687Z,16.16
2023-04-23T01:27:10.307Z,16.19
2023-04-23T01:29:38.418Z,16.22
2023-04-23T01:32:05.591Z,16.22
2023-04-23T01:34:32.754Z,16.31
2023-04-23T01:36:59.433Z,16.26
2023-04-23T01:39:26.262Z,16.41
2023-04-23T01:41:53.329Z,16.47
2023-04-23T01:44:19.755Z,16.43
2023-04-23T01:46:46.813Z,16.47
2023-04-23T01:49:14.459Z,16.39
2023-04-23T01:51:40.872Z,16.29
2023-04-23T01:54:07.284Z,16.28
2023-04-23T01:56:35.591Z,16.30
2023-04-23T01:59:02.505Z,16.28
2023-04-23T02:01:45.287Z,16.31
2023-04-23T02:04:13.362Z,16.19
2023-04-23T02:06:41.155Z,16.15
2023-04-23T02:09:08.100Z,16.19
2023-04-23T02:11:34.595Z,16.11
2023-04-23T02:14:01.978Z,16.18
2023-04-23T02:16:29.113Z,16.14
2023-04-23T02:18:55.874Z,15.95
2023-04-23T02:21:24.374Z,15.96
2023-04-23T02:23:51.387Z,16.07
2023-04-23T02:26:18.805Z,16.06
2023-04-23T02:28:46.163Z,15.90
2023-04-23T02:31:12.811Z,15.86
2023-04-23T02:33:39.286Z,15.86
2023-04-23T02:36:06.018Z,15.90
2023-04-23T02:38:32.560Z,15.84
2023-04-23T02:40:59.095Z,15.93
2023-04-23T02:43:25.539Z,15.86
2023-04-23T02:45:51.930Z,15.89
2023-04-23T02:48:18.617Z,15.87
2023-04-23T02:50:45.039Z,15.84
2023-04-23T02:53:11.504Z,15.94
2023-04-23T02:55:37.980Z,16.00
2023-04-23T02:58:04.484Z,15.85
2023-04-23T03:00:33.202Z,15.88
2023-04-23T03:02:59.779Z,15.86
2023-04-23T03:05:26.334Z,15.96
2023-04-23T03:07:52.779Z,15.87
2023-04-23T03:10:19.310Z,15.80
2023-04-23T03:12:45.776Z,15.72
2023-04-23T03:15:12.650Z,15.79
2023-04-23T03:17:39.362Z,15.77
2023-04-23T03:20:08.704Z,15.74
2023-04-23T03:22:36.078Z,15.73
2023-04-23T03:25:03.866Z,15.65
2023-04-23T03:27:30.332Z,15.61
2023-04-23T03:29:56.911Z,15.51
2023-04-23T03:32:23.469Z,15.56
2023-04-23T03:34:50.027Z,15.65
2023-04-23T03:37:16.776Z,15.64
2023-04-23T03:39:43.278Z,15.55
2023-04-23T03:42:11.114Z,15.57
2023-04-23T03:44:38.695Z,15.62
2023-04-23T03:47:05.717Z,15.75
2023-04-23T03:49:32.572Z,15.72
2023-04-23T03:51:59.052Z,15.70
2023-04-23T03:54:26.538Z,15.60
2023-04-23T03:57:12.100Z,15.56
2023-04-23T03:59:49.277Z,15.54
2023-04-23T04:02:15.848Z,15.47
2023-04-23T04:04:46.221Z,15.42
2023-04-23T04:07:13.123Z,15.38
2023-04-23T04:09:39.749Z,15.39
2023-04-23T04:12:06.311Z,15.41
2023-04-23T04:14:33.022Z,15.35
2023-04-23T04:16:59.432Z,15.37
2023-04-23T04:19:25.913Z,15.37
2023-04-23T04:21:52.360Z,15.40
2023-04-23T04:24:18.753Z,15.39
2023-04-23T04:26:45.938Z,15.43
2023-04-23T04:29:12.612Z,15.37
2023-04-23T04:31:39.188Z,15.28
2023-04-23T04:34:07.206Z,15.29
2023-04-23T04:36:35.135Z,15.24
2023-04-23T04:39:03.384Z,15.22
2023-04-23T04:41:29.870Z,15.15
2023-04-23T04:43:56.747Z,15.12
2023-04-23T04:46:23.267Z,15.13
2023-04-23T04:48:50.018Z,15.13
2023-04-23T04:51:16.450Z,15.06
2023-04-23T04:53:42.899Z,15.03
2023-04-23T04:56:09.328Z,15.02
2023-04-23T04:58:36.367Z,15.00
2023-04-23T05:01:02.982Z,15.06
2023-04-23T05:03:29.614Z,15.05
2023-04-23T05:05:56.457Z,14.98
2023-04-23T05:08:22.952Z,14.95
2023-04-23T05:10:50.441Z,15.04
2023-04-23T05:13:17.659Z,14.98
2023-04-23T05:15:45.529Z,14.88
2023-04-23T05:18:11.969Z,14.96
2023-04-23T05:20:38.486Z,14.91
2023-04-23T05:23:04.914Z,14.97
2023-04-23T05:25:32.029Z,14.94
2023-04-23T05:27:58.467Z,15.10
2023-04-23T05:30:24.947Z,15.00
2023-04-23T05:32:51.428Z,15.02
2023-04-23T05:35:17.895Z,15.02
2023-04-23T05:37:44.304Z,15.00
2023-04-23T05:40:10.994Z,14.98
2023-04-23T05:42:37.438Z,14.91
2023-04-23T05:45:06.626Z,15.00
2023-04-23T05:47:34.470Z,15.09
2023-04-23T05:50:01.640Z,14.96
2023-04-23T05:52:31.343Z,14.99
2023-04-23T05:54:57.802Z,14.96
2023-04-23T05:57:24.234Z,14.95
2023-04-23T05:59:50.667Z,15.12
2023-04-23T06:02:17.216Z,15.00
2023-04-23T06:04:44.057Z,15.06
2023-04-23T06:07:11.382Z,15.21
2023-04-23T06:09:37.830Z,15.19
2023-04-23T06:12:04.318Z,15.23
2023-04-23T06:14:30.734Z,15.19
2023-04-23T06:16:57.156Z,15.21
2023-04-23T06:19:26.470Z,15.18
2023-04-23T06:21:52.913Z,15.13
2023-04-23T06:24:19.321Z,15.22
2023-04-23T06:26:46.122Z,15.18
2023-04-23T06:29:16.505Z,15.19
2023-04-23T06:31:51.094Z,15.26
2023-04-23T06:34:17.619Z,15.21
2023-04-23T06:36:44.092Z,15.32
2023-04-23T06:39:10.523Z,15.23
2023-04-23T06:41:36.948Z,15.26
2023-04-23T06:44:12.025Z,15.12
2023-04-23T06:46:49.509Z,15.05
2023-04-23T06:49:16.003Z,15.06
2023-04-23T06:51:42.468Z,15.09
2023-04-23T06:54:08.884Z,15.12
2023-04-23T06:56:35.380Z,15.08
2023-04-23T06:59:01.937Z,15.12
2023-04-23T07:01:29.488Z,15.23
2023-04-23T07:03:56.045Z,15.13
2023-04-23T07:06:22.556Z,15.23
2023-04-23T07:08:49.158Z,15.17
2023-04-23T07:11:15.835Z,15.10
2023-04-23T07:13:42.416Z,15.00
2023-04-23T07:16:08.890Z,14.96
2023-04-23T07:18:35.342Z,14.97
2023-04-23T07:21:02.229Z,15.05
2023-04-23T07:23:28.703Z,15.03
2023-04-23T07:25:55.143Z,15.01
2023-04-23T07:28:21.577Z,15.03
2023-04-23T07:30:48.175Z,15.07
2023-04-23T07:33:14.697Z,14.99
2023-04-23T07:35:41.120Z,14.96
2023-04-23T07:38:07.638Z,15.01
2023-04-23T07:40:34.066Z,15.07
2023-04-23T07:43:01.057Z,15.08
2023-04-23T07:45:27.507Z,15.20
2023-04-23T07:47:53.917Z,15.03
2023-04-23T07:50:20.666Z,15.03
2023-04-23T07:52:47.105Z,15.04
2023-04-23T07:55:13.560Z,15.19
2023-04-23T07:57:39.989Z,15.13
2023-04-23T08:00:09.367Z,15.06
2023-04-23T08:02:38.668Z,15.12
2023-04-23T08:05:05.622Z,15.21
2023-04-23T08:07:32.235Z,15.21
2023-04-23T08:10:02.857Z,15.24
2023-04-23T08:12:30.149Z,15.19
2023-04-23T08:14:56.625Z,15.35
2023-04-23T08:17:29.222Z,15.34
2023-04-23T08:19:55.681Z,15.26
2023-04-23T08:22:22.312Z,15.35
2023-04-23T08:24:48.816Z,15.40
2023-04-23T08:27:15.228Z,15.34
2023-04-23T08:29:41.884Z,15.22
2023-04-23T08:32:08.550Z,15.23
2023-04-23T08:34:35.868Z,15.23
2023-04-23T08:37:02.354Z,15.28
2023-04-23T08:39:30.517Z,15.30
2023-04-23T08:42:03.533Z,15.18
2023-04-23T08:44:31.343Z,15.17
2023-04-23T08:46:58.326Z,15.25
2023-04-23T08:49:29.452Z,15.11
2023-04-23T08:51:58.608Z,14.91
2023-04-23T08:54:26.982Z,14.99
2023-04-23T08:57:00.810Z,14.76
2023-04-23T08:59:30.690Z,14.70
2023-04-23T09:01:57.551Z,14.74
2023-04-23T09:04:25.563Z,14.77
2023-04-23T09:06:52.441Z,14.67
2023-04-23T09:09:23.575Z,14.64
2023-04-23T09:11:51.273Z,14.54
2023-04-23T09:14:19.743Z,14.35
2023-04-23T09:16:46.237Z,14.49
2023-04-23T09:19:13.256Z,14.50
2023-04-23T09:21:42.566Z,14.41
2023-04-23T09:24:13.126Z,14.37
2023-04-23T09:26:47.027Z,14.39
2023-04-23T09:29:19.240Z,14.47
2023-04-23T09:31:47.931Z,14.61
2023-04-23T09:34:21.790Z,14.54
2023-04-23T09:36:52.764Z,14.40
2023-04-23T09:39:21.627Z,14.17
2023-04-23T09:41:48.607Z,14.09
2023-04-23T09:44:19.653Z,14.00
2023-04-23T09:46:46.059Z,13.80
2023-04-23T09:49:13.294Z,13.72
2023-04-23T09:51:41.603Z,14.06
2023-04-23T09:54:13.376Z,13.88
2023-04-23T09:56:41.475Z,13.94
2023-04-23T10:02:02.797Z,13.88
2023-04-23T10:04:29.631Z,13.88
2023-04-23T10:07:17.255Z,14.01
2023-04-23T10:09:46.352Z,14.08
2023-04-23T10:12:29.605Z,13.92
2023-04-23T10:15:00.277Z,14.06
2023-04-23T10:17:27.040Z,13.99
2023-04-23T10:19:55.598Z,14.08
2023-04-23T10:22:23.045Z,14.20
2023-04-23T10:24:55.873Z,14.42
2023-04-23T10:27:44.562Z,14.39
2023-04-23T10:30:16.232Z,14.46
2023-04-23T10:32:44.831Z,14.56
2023-04-23T10:35:11.408Z,14.53
2023-04-23T10:37:38.587Z,14.61
2023-04-23T10:40:12.824Z,14.33
2023-04-23T10:42:40.632Z,14.70
2023-04-23T10:47:47.069Z,14.78
2023-04-23T10:50:22.474Z,14.70
2023-04-23T10:52:53.324Z,14.73
2023-04-23T10:55:27.767Z,14.57
2023-04-23T10:58:00.888Z,14.74
2023-04-23T11:00:30.681Z,14.97
2023-04-23T11:02:57.383Z,14.82
2023-04-23T11:05:25.786Z,14.81
2023-04-23T11:10:54.188Z,14.55
2023-04-23T11:13:23.676Z,14.66
2023-04-23T11:16:14.009Z,14.81
2023-04-23T11:19:04.972Z,14.85
2023-04-23T11:21:50.269Z,14.79
2023-04-23T11:24:16.698Z,14.83
2023-04-23T11:26:44.020Z,14.87
2023-04-23T11:29:14.437Z,14.94
2023-04-23T11:31:50.659Z,15.10
2023-04-23T11:34:28.610Z,15.08
2023-04-23T11:36:55.149Z,15.34
2023-04-23T11:39:24.174Z,15.56
2023-04-23T11:41:52.301Z,15.69
2023-04-23T11:44:21.963Z,15.66
2023-04-23T11:46:49.638Z,15.77
2023-04-23T11:49:18.578Z,15.87
2023-04-23T11:51:46.018Z,16.28
2023-04-23T11:54:13.672Z,16.38
2023-04-23T11:56:41.164Z,16.15
2023-04-23T11:59:08.314Z,16.39
2023-04-23T12:01:47.051Z,16.67
2023-04-23T12:04:20.977Z,16.47
2023-04-23T12:06:48.822Z,16.80
2023-04-23T12:09:16.034Z,16.97
2023-04-23T12:11:43.597Z,17.00
2023-04-23T12:14:11.107Z,17.25
2023-04-23T12:16:41.299Z,17.54
2023-04-23T12:19:09.747Z,17.51
2023-04-23T12:21:48.073Z,17.82
2023-04-23T12:24:14.867Z,17.82
2023-04-23T12:26:42.234Z,18.06
2023-04-23T12:29:08.698Z,17.96
2023-04-23T12:31:37.300Z,18.24
2023-04-23T12:34:06.087Z,18.47
2023-04-23T12:36:33.738Z,18.82
2023-04-23T12:39:22.131Z,18.70
2023-04-23T12:41:51.282Z,18.91
2023-04-23T12:44:17.691Z,19.16
2023-04-23T12:46:44.417Z,18.72
2023-04-23T12:49:10.853Z,18.72
2023-04-23T12:51:37.605Z,18.85
2023-04-23T12:54:04.295Z,18.94
2023-04-23T12:56:30.706Z,19.20
2023-04-23T12:58:57.495Z,19.28
2023-04-23T13:01:23.895Z,19.35
2023-04-23T13:03:50.940Z,19.45
2023-04-23T13:06:17.433Z,19.59
2023-04-23T13:08:43.813Z,19.67
2023-04-23T13:11:11.217Z,19.76
2023-04-23T13:13:37.674Z,19.61
2023-04-23T13:16:04.180Z,19.67
2023-04-23T13:18:30.577Z,19.88
2023-04-23T13:20:57.499Z,19.79
2023-04-23T13:23:23.885Z,19.94
2023-04-23T13:25:50.301Z,19.74
2023-04-23T13:28:16.714Z,19.81
2023-04-23T13:30:43.117Z,19.97
2023-04-23T13:33:09.551Z,20.03
2023-04-23T13:35:37.715Z,20.28
2023-04-23T13:38:04.757Z,20.15
2023-04-23T13:40:31.168Z,19.99
2023-04-23T13:42:57.582Z,19.73
2023-04-23T13:45:23.979Z,19.84
2023-04-23T13:47:50.697Z,20.07
2023-04-23T13:50:17.176Z,20.17
2023-04-23T13:52:43.706Z,20.09
2023-04-23T13:55:10.355Z,19.85
2023-04-23T13:57:38.125Z,19.72
2023-04-23T14:00:05.391Z,19.64
2023-04-23T14:02:31.903Z,20.08
2023-04-23T14:04:58.611Z,20.18
2023-04-23T14:07:25.063Z,20.29
2023-04-23T14:09:52.791Z,20.18
2023-04-23T14:12:20.039Z,20.52
2023-04-23T14:14:46.450Z,20.46
2023-04-23T14:17:12.834Z,20.47
2023-04-23T14:19:39.265Z,20.47
2023-04-23T14:22:06.156Z,20.66
2023-04-23T14:24:39.405Z,20.78
2023-04-23T14:27:06.085Z,20.64
2023-04-23T14:29:46.183Z,20.84
2023-04-23T14:32:12.925Z,20.63
2023-04-23T14:34:39.595Z,20.65
2023-04-23T14:37:06.199Z,20.83
2023-04-23T14:39:33.930Z,21.02
2023-04-23T14:42:01.155Z,20.59
2023-04-23T14:44:29.083Z,20.80
2023-04-23T14:46:56.878Z,20.80
2023-04-23T14:49:24.001Z,20.98
2023-04-23T14:51:54.144Z,20.98
2023-04-23T14:54:21.584Z,20.87
2023-04-23T14:56:47.981Z,20.95
2023-04-23T14:59:15.035Z,21.16
2023-04-23T15:01:41.535Z,20.91
2023-04-23T15:04:08.086Z,20.96
2023-04-23T15:06:34.520Z,21.19
2023-04-23T15:09:00.929Z,21.06
2023-04-23T15:11:27.337Z,21.34
2023-04-23T15:14:08.315Z,21.40
2023-04-23T15:16:48.262Z,21.17
2023-04-23T15:19:18.112Z,21.25
2023-04-23T15:21:45.085Z,20.89
2023-04-23T15:24:11.502Z,20.95
2023-04-23T15:26:38.272Z,20.73
2023-04-23T15:29:08.440Z,20.56
2023-04-23T15:31:34.904Z,20.68
2023-04-23T15:34:01.541Z,21.02
2023-04-23T15:36:28.013Z,21.13
2023-04-23T15:38:54.501Z,20.94
2023-04-23T15:41:20.964Z,21.10
2023-04-23T15:43:50.223Z,20.98
2023-04-23T15:46:16.671Z,20.85
2023-04-23T15:48:43.936Z,20.89
2023-04-23T15:51:10.454Z,20.95
2023-04-23T15:53:36.864Z,20.90
2023-04-23T15:56:03.526Z,21.01
2023-04-23T15:58:29.946Z,21.02
2023-04-23T16:00:56.411Z,21.04
2023-04-23T16:03:23.011Z,20.67
2023-04-23T16:05:50.973Z,20.72
2023-04-23T16:08:17.432Z,20.74
2023-04-23T16:10:43.899Z,20.75
2023-04-23T16:13:10.534Z,20.75
2023-04-23T16:15:36.987Z,20.79
2023-04-23T16:18:03.521Z,20.69
2023-04-23T16:20:30.563Z,20.64
2023-04-23T16:22:57.010Z,20.59
2023-04-23T16:25:24.116Z,20.53
2023-04-23T16:27:50.673Z,20.50
2023-04-23T16:30:17.092Z,20.43
2023-04-23T16:32:43.592Z,20.42
2023-04-23T16:35:10.341Z,20.45
2023-04-23T16:37:36.739Z,20.42
2023-04-23T16:40:03.363Z,20.45
2023-04-23T16:42:29.795Z,20.39
2023-04-23T16:44:56.267Z,20.30
2023-04-23T16:47:22.742Z,20.19
2023-04-23T16:49:49.180Z,20.08
2023-04-23T16:52:16.082Z,20.00
2023-04-23T16:54:42.761Z,19.87
2023-04-23T16:57:09.359Z,19.69
2023-04-23T16:59:35.893Z,19.57
2023-04-23T17:02:02.377Z,19.27
2023-04-23T17:04:28.967Z,18.94
2023-04-23T17:06:55.654Z,19.03
2023-04-23T17:09:22.147Z,18.95
2023-04-23T17:11:48.554Z,18.99
2023-04-23T17:14:14.964Z,18.98
2023-04-23T17:16:41.717Z,18.86
2023-04-23T17:19:08.302Z,18.82
2023-04-23T17:21:34.757Z,18.79
2023-04-23T17:24:01.266Z,18.69
2023-04-23T17:26:27.732Z,18.57
2023-04-23T17:28:54.230Z,18.55
2023-04-23T17:31:20.924Z,18.49
2023-04-23T17:33:49.469Z,18.41
2023-04-23T17:36:17.163Z,18.43
2023-04-23T17:38:43.710Z,18.36
2023-04-23T17:41:10.350Z,18.33
2023-04-23T17:43:36.779Z,18.22
2023-04-23T17:46:03.528Z,18.24
2023-04-23T17:48:30.221Z,18.12
2023-04-23T17:50:56.684Z,18.19
2023-04-23T17:53:23.140Z,18.20
2023-04-23T17:55:49.542Z,18.20
2023-04-23T17:58:16.484Z,18.14
2023-04-23T18:00:43.154Z,18.07
2023-04-23T18:03:11.737Z,18.00
2023-04-23T18:05:38.408Z,17.92
2023-04-23T18:08:06.830Z,17.69
2023-04-23T18:10:33.383Z,17.53
2023-04-23T18:13:02.833Z,17.36
2023-04-23T18:15:32.168Z,17.23
2023-04-23T18:17:58.961Z,17.19
2023-04-23T18:20:26.565Z,17.12
2023-04-23T18:22:55.912Z,17.11
2023-04-23T18:25:22.474Z,17.13
2023-04-23T18:27:48.990Z,16.97
2023-04-23T18:30:15.577Z,16.87
2023-04-23T18:32:47.020Z,16.81
2023-04-23T18:35:13.711Z,16.61
2023-04-23T18:38:02.638Z,16.52
2023-04-23T18:40:29.081Z,16.41
2023-04-23T18:42:55.896Z,16.34
2023-04-23T18:45:22.295Z,16.27
2023-04-23T18:47:58.131Z,16.14
2023-04-23T18:50:38.189Z,15.84
2023-04-23T18:53:05.011Z,15.81
2023-04-23T18:55:31.468Z,15.76
2023-04-23T18:57:58.642Z,15.68
2023-04-23T19:00:25.453Z,15.58
2023-04-23T19:02:52.274Z,15.64
2023-04-23T19:05:18.796Z,15.50
2023-04-23T19:07:45.280Z,15.48
2023-04-23T19:10:12.133Z,15.42
2023-04-23T19:12:38.808Z,15.36
2023-04-23T19:15:05.922Z,15.22
2023-04-23T19:17:32.554Z,15.23
2023-04-23T19:19:59.008Z,15.25
2023-04-23T19:22:25.772Z,15.21
2023-04-23T19:24:52.236Z,15.01
2023-04-23T19:27:18.645Z,14.99
2023-04-23T19:29:46.437Z,14.95
2023-04-23T19:32:12.892Z,14.99
2023-04-23T19:34:39.315Z,14.74
2023-04-23T19:37:06.610Z,14.66
2023-04-23T19:39:33.050Z,14.57
2023-04-23T19:41:59.452Z,14.57
2023-04-23T19:44:25.864Z,14.49
2023-04-23T19:46:52.403Z,14.54
2023-04-23T19:49:18.869Z,14.39
2023-04-23T19:51:46.161Z,14.49
2023-04-23T19:54:12.581Z,14.30
2023-04-23T19:56:38.983Z,14.19
2023-04-23T19:59:09.491Z,14.16
2023-04-23T20:01:36.247Z,14.10
2023-04-23T20:04:06.965Z,14.03
2023-04-23T20:06:33.569Z,13.97
2023-04-23T20:09:18.704Z,13.97
2023-04-23T20:11:46.189Z,13.98
2023-04-23T20:14:15.428Z,13.90
2023-04-23T20:16:41.942Z,13.87
2023-04-23T20:19:11.825Z,13.81
2023-04-23T20:21:39.402Z,13.82
2023-04-23T20:24:10.258Z,13.81
2023-04-23T20:26:37.773Z,13.74
2023-04-23T20:29:04.678Z,13.70
2023-04-23T20:31:31.333Z,13.59
2023-04-23T20:33:57.973Z,13.59
2023-04-23T20:36:28.666Z,13.54
2023-04-23T20:38:58.046Z,13.49
2023-04-23T20:41:26.429Z,13.42
2023-04-23T20:43:52.933Z,13.43
2023-04-23T20:46:19.397Z,13.32
2023-04-23T20:48:45.885Z,13.27
2023-04-23T20:51:12.308Z,13.29
2023-04-23T20:53:38.730Z,13.26
2023-04-23T20:56:05.136Z,13.23
2023-04-23T20:58:31.586Z,13.20
2023-04-23T21:00:58.042Z,13.17
2023-04-23T21:03:24.576Z,13.19
2023-04-23T21:05:51.089Z,13.17
2023-04-23T21:08:17.526Z,13.16
2023-04-23T21:10:44.458Z,13.18
2023-04-23T21:13:12.117Z,13.12
2023-04-23T21:15:38.863Z,13.16
2023-04-23T21:18:05.876Z,13.15
2023-04-23T21:20:32.467Z,13.17
2023-04-23T21:22:58.883Z,13.29
2023-04-23T21:25:26.693Z,13.21
2023-04-23T21:27:55.169Z,13.23
2023-04-23T21:30:29.870Z,13.35
2023-04-23T21:32:56.335Z,13.35
2023-04-23T21:35:22.820Z,13.40
2023-04-23T21:37:49.227Z,13.51
2023-04-23T21:40:15.694Z,13.57
2023-04-23T21:42:42.190Z,13.49
2023-04-23T21:45:09.005Z,13.47
2023-04-23T21:47:35.559Z,13.43
2023-04-23T21:50:02.121Z,13.32
2023-04-23T21:52:28.710Z,13.38
2023-04-23T21:54:55.154Z,13.35
2023-04-23T21:57:21.585Z,13.52
2023-04-23T21:59:48.022Z,13.55
2023-04-23T22:02:14.799Z,13.63
2023-04-23T22:04:41.254Z,13.69
2023-04-23T22:07:12.378Z,13.69
2023-04-23T22:09:39.291Z,13.73
2023-04-23T22:12:05.848Z,13.79
2023-04-23T22:14:32.281Z,13.76
2023-04-23T22:16:58.972Z,13.75
2023-04-23T22:19:25.929Z,13.69
2023-04-23T22:21:52.346Z,13.69
2023-04-23T22:24:18.775Z,13.72
2023-04-23T22:26:45.688Z,13.75
2023-04-23T22:29:12.178Z,13.76
2023-04-23T22:31:38.601Z,13.80
2023-04-23T22:34:05.078Z,13.81
2023-04-23T22:36:32.583Z,13.79
2023-04-23T22:38:59.010Z,13.80
2023-04-23T22:41:25.824Z,13.80
2023-04-23T22:43:54.087Z,13.81
2023-04-23T22:46:20.538Z,13.79
2023-04-23T22:48:47.451Z,13.76
2023-04-23T22:51:14.157Z,13.82
2023-04-23T22:53:40.790Z,13.80
2023-04-23T22:56:07.526Z,13.76
2023-04-23T22:58:34.077Z,13.72
2023-04-23T23:01:00.504Z,13.68
2023-04-23T23:03:27.263Z,13.74
2023-04-23T23:05:53.823Z,13.81
2023-04-23T23:08:20.227Z,13.77
2023-04-23T23:10:46.634Z,13.73
2023-04-23T23:13:13.060Z,13.73
2023-04-23T23:15:39.538Z,13.68
2023-04-23T23:18:06.157Z,13.66
2023-04-23T23:20:32.666Z,13.65
2023-04-23T23:22:59.081Z,13.57
2023-04-23T23:25:25.625Z,13.67
2023-04-23T23:27:52.029Z,13.63
2023-04-23T23:30:18.464Z,13.66
2023-04-23T23:32:46.052Z,13.67
2023-04-23T23:35:12.604Z,13.74
2023-04-23T23:37:39.027Z,13.61
2023-04-23T23:40:06.081Z,13.60
2023-04-23T23:42:32.493Z,13.58
2023-04-23T23:44:58.898Z,13.62
2023-04-23T23:47:25.387Z,13.56
2023-04-23T23:49:51.821Z,13.48
2023-04-23T23:52:18.233Z,13.50
2023-04-23T23:54:44.640Z,13.48
2023-04-23T23:57:11.863Z,13.45
2023-04-23T23:59:38.516Z,13.47
